M.s. Sonoma — WZC8517 — position and weather

sailwx.info

Track history (hours):
 
Tides and Currents Weather Stations Pressure Air Temp Water Temp Dewpoint Dewpoint Depression Visibility Wind Speed Wind Dir Waves Ship Positions

M.s. Sonoma

Owner: GOLDEN GATE BRIDGE HWY & TRANSP DIST, LARKSPUR, CA. More information available from US FCC via Universal Licensing System and Coast Guard Vessel Documentation Center.

Last reported at 2017-Nov-10 19:36 UTC. Time now 2017-Nov-20 00:27 UTC.
Position N 37°57' W 122°31'.
Warning: this ship's position is 9 days out of date.

Length 56 m.

Type: Passenger vessel. MMSI: 366969970.

Date/timePositionNaut miles runAvg speedWind from/ knotsBaromVisibWave heightAir tempDewpointWater temp
2017-Nov-10 19:36N 37°57' W 122°31'0 0.6
2017-Nov-10 19:24N 37°57' W 122°30'511.5
2017-Nov-10 19:01N 37°54' W 122°26'3 6.3
2017-Nov-10 18:30N 37°51' W 122°29'510.9
2017-Nov-10 18:00N 37°48' W 122°24'0 0.0
2017-Nov-10 17:31N 37°48' W 122°24'0 0.0
2017-Nov-10 17:00N 37°48' W 122°24'3 6.8
2017-Nov-10 16:30N 37°50' W 122°26'1 2.7
2017-Nov-10 16:00N 37°51' W 122°28'4 8.0
2017-Nov-10 15:30N 37°49' W 122°24'5 9.3
2017-Nov-10 15:01N 37°51' W 122°28'611.0
2017-Nov-10 14:31N 37°57' W 122°30'0 0.0
2017-Nov-10 08:44N 37°57' W 122°31'1 3.4
2017-Nov-10 08:30N 37°56' W 122°30'815.5
2017-Nov-10 08:01N 37°50' W 122°24'4 7.1
2017-Nov-10 07:30N 37°47' W 122°23'0 0.0
2017-Nov-10 07:00N 37°47' W 122°23'0 0.0
2017-Nov-10 06:30N 37°47' W 122°23'0 0.0
2017-Nov-10 06:00N 37°47' W 122°23'0 0.0
2017-Nov-10 05:31N 37°47' W 122°23'0 0.0
2017-Nov-10 05:01N 37°47' W 122°23'0 0.0
2017-Nov-10 04:30N 37°47' W 122°23'0 0.0
2017-Nov-10 04:00N 37°47' W 122°23'0 0.0
2017-Nov-10 03:30N 37°47' W 122°23'0 0.0
2017-Nov-10 03:00N 37°47' W 122°23'0 0.0
2017-Nov-10 02:30N 37°47' W 122°23'0 0.0
2017-Nov-10 02:00N 37°47' W 122°23'0 0.0
2017-Nov-10 01:30N 37°47' W 122°23'611.4
2017-Nov-10 01:00N 37°52' W 122°25'612.2
2017-Nov-10 00:30N 37°57' W 122°31'0 0.0
2017-Nov-09 23:59N 37°57' W 122°31'0 0.0
2017-Nov-08 19:30N 37°57' W 122°31'  
Track history (hours):
 
Tides and Currents Weather Stations Pressure Air Temp Water Temp Dewpoint Dewpoint Depression Visibility Wind Speed Wind Dir Waves Ship Positions

M.s. Sonoma

Owner: GOLDEN GATE BRIDGE HWY & TRANSP DIST, LARKSPUR, CA. More information available from US FCC via Universal Licensing System and Coast Guard Vessel Documentation Center.

Last reported at 2017-Nov-10 19:36 UTC. Time now 2017-Nov-20 00:27 UTC.
Position N 37°57' W 122°31'.
Warning: this ship's position is 9 days out of date.

Length 56 m.

Type: Passenger vessel. MMSI: 366969970.

Date/timePositionNaut miles runAvg speedWind from/ knotsBaromVisibWave heightAir tempDewpointWater temp
2017-Nov-10 19:36N 37°57' W 122°31'0 0.6
2017-Nov-10 19:24N 37°57' W 122°30'511.5
2017-Nov-10 19:01N 37°54' W 122°26'3 6.3
2017-Nov-10 18:30N 37°51' W 122°29'510.9
2017-Nov-10 18:00N 37°48' W 122°24'0 0.0
2017-Nov-10 17:31N 37°48' W 122°24'0 0.0
2017-Nov-10 17:00N 37°48' W 122°24'3 6.8
2017-Nov-10 16:30N 37°50' W 122°26'1 2.7
2017-Nov-10 16:00N 37°51' W 122°28'4 8.0
2017-Nov-10 15:30N 37°49' W 122°24'5 9.3
2017-Nov-10 15:01N 37°51' W 122°28'611.0
2017-Nov-10 14:31N 37°57' W 122°30'0 0.0
2017-Nov-10 08:44N 37°57' W 122°31'1 3.4
2017-Nov-10 08:30N 37°56' W 122°30'815.5
2017-Nov-10 08:01N 37°50' W 122°24'4 7.1
2017-Nov-10 07:30N 37°47' W 122°23'0 0.0
2017-Nov-10 07:00N 37°47' W 122°23'0 0.0
2017-Nov-10 06:30N 37°47' W 122°23'0 0.0
2017-Nov-10 06:00N 37°47' W 122°23'0 0.0
2017-Nov-10 05:31N 37°47' W 122°23'0 0.0
2017-Nov-10 05:01N 37°47' W 122°23'0 0.0
2017-Nov-10 04:30N 37°47' W 122°23'0 0.0
2017-Nov-10 04:00N 37°47' W 122°23'0 0.0
2017-Nov-10 03:30N 37°47' W 122°23'0 0.0
2017-Nov-10 03:00N 37°47' W 122°23'0 0.0
2017-Nov-10 02:30N 37°47' W 122°23'0 0.0
2017-Nov-10 02:00N 37°47' W 122°23'0 0.0
2017-Nov-10 01:30N 37°47' W 122°23'611.4
2017-Nov-10 01:00N 37°52' W 122°25'612.2
2017-Nov-10 00:30N 37°57' W 122°31'0 0.0
2017-Nov-09 23:59N 37°57' W 122°31'0 0.0
2017-Nov-08 19:30N 37°57' W 122°31'  

Dump ship's entire track history